Time;durP1;ratioP1;P1;durP2;ratioP2;P2;SDS_P1;SDS_P2;PMS_P1;PMS_P2;Temp;Humidity;BMP_temperature;BMP_pressure;BME280_temperature;BME280_humidity;BME280_pressure;Samples;Min_cycle;Max_cycle;Signal;HPM_P1;HPM_P2
2022/08/17 00:01:28;;;;;;;21.33;16.20;;;;;;;24.20;100.00;100962.19;5064268;28;20052;-60
2022/08/17 00:03:58;;;;;;;19.17;17.15;;;;;;;24.17;100.00;100968.00;5064321;28;20076;-60
2022/08/17 00:06:27;;;;;;;16.27;14.57;;;;;;;24.18;100.00;100964.28;5048548;28;20052;-63
2022/08/17 00:09:00;;;;;;;20.85;18.00;;;;;;;24.14;100.00;100969.28;5054753;28;20409;-62
2022/08/17 00:11:30;;;;;;;20.77;17.85;;;;;;;24.11;100.00;100968.94;5029176;28;20143;-61
2022/08/17 00:14:07;;;;;;;21.70;17.83;;;;;;;24.12;100.00;100962.56;5044162;28;20056;-61
2022/08/17 00:16:40;;;;;;;20.38;18.27;;;;;;;24.07;100.00;100960.56;5044000;28;20433;-60
2022/08/17 00:19:24;;;;;;;20.08;17.98;;;;;;;24.03;100.00;100962.91;5058153;28;20045;-61
2022/08/17 00:21:55;;;;;;;20.45;16.58;;;;;;;24.03;100.00;100960.22;5051254;28;20045;-61
2022/08/17 00:24:41;;;;;;;19.27;17.27;;;;;;;23.98;100.00;100953.94;5057633;28;20056;-61
2022/08/17 00:27:08;;;;;;;18.38;16.40;;;;;;;23.97;100.00;100945.09;5046214;28;20045;-61
2022/08/17 00:29:34;;;;;;;20.92;17.15;;;;;;;23.96;100.00;100943.44;5060848;28;20067;-61
2022/08/17 00:32:02;;;;;;;20.48;18.40;;;;;;;23.95;100.00;100940.97;5059030;28;20063;-61
2022/08/17 00:34:48;;;;;;;;;;;;;;;23.92;100.00;100944.94;5043897;28;20049;-61
2022/08/17 00:37:15;;;;;;;21.13;17.52;;;;;;;23.85;100.00;100945.03;5060337;28;19920;-61
2022/08/17 00:39:41;;;;;;;21.42;19.20;;;;;;;23.79;100.00;100937.94;5071080;28;20420;-60
2022/08/17 00:42:13;;;;;;;19.88;17.33;;;;;;;23.85;100.00;100933.53;5062100;28;20559;-61
2022/08/17 00:44:39;;;;;;;19.58;17.02;;;;;;;23.75;100.00;100930.56;5055717;28;20143;-62
2022/08/17 00:47:06;;;;;;;20.98;18.15;;;;;;;23.73;100.00;100936.16;5058575;28;20477;-61
2022/08/17 00:49:32;;;;;;;20.98;17.23;;;;;;;23.74;100.00;100937.81;5065995;28;20051;-60
2022/08/17 00:52:07;;;;;;;19.52;17.63;;;;;;;23.71;100.00;100930.22;5059813;28;20055;-61
2022/08/17 00:54:40;;;;;;;20.38;17.83;;;;;;;23.68;100.00;100931.50;5053004;28;20053;-59
2022/08/17 00:57:11;;;;;;;20.00;17.08;;;;;;;23.70;100.00;100936.63;5046773;28;20059;-61
2022/08/17 00:59:55;;;;;;;20.50;18.42;;;;;;;23.65;100.00;100933.81;5053050;28;20083;-61
2022/08/17 01:02:31;;;;;;;19.42;17.42;;;;;;;23.61;100.00;100929.97;5055255;28;20134;-60
2022/08/17 01:05:11;;;;;;;23.83;18.30;;;;;;;23.59;100.00;100930.19;5059565;28;20056;-60
2022/08/17 01:07:38;;;;;;;20.58;18.00;;;;;;;23.58;100.00;100922.41;5044151;28;20043;-61
2022/08/17 01:10:10;;;;;;;20.70;18.55;;;;;;;23.57;100.00;100926.94;5050985;28;20053;-61
2022/08/17 01:12:56;;;;;;;20.85;18.67;;;;;;;23.55;100.00;100918.31;5043733;28;20056;-61
2022/08/17 01:15:23;;;;;;;19.90;17.85;;;;;;;23.55;100.00;100917.50;5056138;28;20135;-61
2022/08/17 01:17:50;;;;;;;19.88;17.55;;;;;;;23.54;100.00;100916.72;5064419;28;20045;-61
2022/08/17 01:20:16;;;;;;;20.20;17.30;;;;;;;23.53;100.00;100915.06;5056382;28;20497;-61
2022/08/17 01:22:42;;;;;;;18.92;16.95;;;;;;;23.55;100.00;100912.16;5059146;28;20056;-62
2022/08/17 01:25:11;;;;;;;20.15;17.75;;;;;;;23.53;100.00;100920.41;5048354;28;20049;-62
2022/08/17 01:27:37;;;;;;;20.20;17.38;;;;;;;23.47;100.00;100910.63;5065595;28;20052;-61
2022/08/17 01:30:09;;;;;;;19.45;16.65;;;;;;;23.46;100.00;100912.50;5069426;28;20131;-61
2022/08/17 01:32:55;;;;;;;23.90;19.23;;;;;;;23.40;100.00;100916.06;5051698;28;20052;-62
2022/08/17 01:35:22;;;;;;;21.98;19.60;;;;;;;23.36;100.00;100906.06;5077474;28;20055;-61
2022/08/17 01:37:48;;;;;;;21.20;19.10;;;;;;;23.32;100.00;100908.38;5056934;28;20040;-61
2022/08/17 01:40:34;;;;;;;20.50;17.77;;;;;;;23.37;100.00;100911.19;5057511;28;20048;-61
2022/08/17 01:43:09;;;;;;;22.40;18.80;;;;;;;23.36;100.00;100906.06;5062596;28;20093;-61
2022/08/17 01:45:43;;;;;;;24.60;19.58;;;;;;;23.36;100.00;100898.84;5070822;28;20053;-61
2022/08/17 01:48:11;;;;;;;26.52;18.73;;;;;;;23.31;100.00;100904.09;5052728;28;20075;-60
2022/08/17 01:50:40;;;;;;;21.70;18.73;;;;;;;23.31;100.00;100904.09;5070847;28;20063;-60
2022/08/17 01:53:12;;;;;;;21.58;18.70;;;;;;;23.29;100.00;100896.28;5061323;28;20416;-61
2022/08/17 01:55:51;;;;;;;24.88;19.35;;;;;;;23.25;100.00;100894.31;5070161;28;20049;-61
2022/08/17 01:58:19;;;;;;;19.70;17.58;;;;;;;23.26;100.00;100896.72;5066731;28;20044;-61
2022/08/17 02:00:47;;;;;;;25.33;20.05;;;;;;;23.23;100.00;100889.16;5051349;28;20086;-61
2022/08/17 02:03:27;;;;;;;22.05;19.08;;;;;;;23.21;100.00;100891.25;5059305;28;20049;-61
2022/08/17 02:05:54;;;;;;;22.67;18.92;;;;;;;23.16;100.00;100898.34;5065581;28;20041;-61
2022/08/17 02:08:21;;;;;;;20.92;18.85;;;;;;;23.09;100.00;100893.91;5053137;28;20071;-62
2022/08/17 02:11:08;;;;;;;22.52;19.13;;;;;;;23.15;100.00;100896.69;5057918;28;20056;-61
2022/08/17 02:13:37;;;;;;;20.08;17.98;;;;;;;23.15;100.00;100894.84;5062996;28;20080;-61
2022/08/17 02:16:04;;;;;;;21.53;19.20;;;;;;;23.11;100.00;100899.03;5049960;28;20053;-61
2022/08/17 02:18:31;;;;;;;24.00;19.50;;;;;;;23.07;100.00;100900.50;5063338;28;20043;-62
2022/08/17 02:20:57;;;;;;;23.08;20.63;;;;;;;23.03;100.00;100891.31;5058570;28;20048;-61
2022/08/17 02:23:27;;;;;;;23.83;19.67;;;;;;;23.03;100.00;100896.66;5053776;28;20048;-61
2022/08/17 02:25:56;;;;;;;25.45;18.73;;;;;;;22.99;100.00;100904.31;5050736;28;20045;-61
2022/08/17 02:28:22;;;;;;;24.05;19.55;;;;;;;22.97;100.00;100900.22;5055516;28;20050;-62
2022/08/17 02:30:49;;;;;;;23.88;20.10;;;;;;;22.93;100.00;100899.03;5072306;28;20048;-61
2022/08/17 02:33:32;;;;;;;22.30;19.50;;;;;;;22.91;100.00;100885.88;5057505;28;20047;-61
2022/08/17 02:36:10;;;;;;;22.20;19.90;;;;;;;22.86;100.00;100886.56;5057716;28;20048;-61
2022/08/17 02:38:37;;;;;;;19.75;17.38;;;;;;;22.87;100.00;100890.06;5053247;28;20047;-61
2022/08/17 02:41:04;;;;;;;21.83;19.38;;;;;;;22.83;100.00;100884.34;5058588;28;20509;-61
2022/08/17 02:43:31;;;;;;;28.23;20.05;;;;;;;22.81;100.00;100888.28;5052931;28;20060;-61
2022/08/17 02:45:57;;;;;;;22.63;20.33;;;;;;;22.76;100.00;100885.47;5049543;28;20132;-61
2022/08/17 02:48:24;;;;;;;21.77;19.38;;;;;;;22.73;100.00;100891.28;5052416;28;20053;-61
2022/08/17 02:50:56;;;;;;;21.88;19.63;;;;;;;22.68;100.00;100890.09;5049298;28;20071;-61
2022/08/17 02:53:23;;;;;;;21.88;19.45;;;;;;;22.66;100.00;100886.84;5067807;28;20059;-62
2022/08/17 02:55:51;;;;;;;27.95;20.35;;;;;;;22.67;100.00;100888.44;5044476;28;20049;-61
2022/08/17 02:58:19;;;;;;;23.67;20.45;;;;;;;22.67;100.00;100891.13;5052910;28;20087;-61
2022/08/17 03:01:02;;;;;;;27.80;20.92;;;;;;;22.62;100.00;100893.69;5061340;28;20505;-61
2022/08/17 03:03:29;;;;;;;25.90;20.33;;;;;;;22.60;100.00;100901.09;5057773;28;20063;-61
2022/08/17 03:05:55;;;;;;;21.00;18.73;;;;;;;22.62;100.00;100891.00;5064946;28;20052;-61
2022/08/17 03:08:22;;;;;;;22.73;19.60;;;;;;;22.58;100.00;100887.16;5056810;28;20064;-61
2022/08/17 03:10:49;;;;;;;22.73;19.80;;;;;;;22.57;100.00;100877.47;5061602;28;20048;-61
2022/08/17 03:13:16;;;;;;;24.27;21.45;;;;;;;22.61;100.00;100883.19;5050436;28;20382;-61
2022/08/17 03:15:44;;;;;;;23.48;20.98;;;;;;;22.62;100.00;100874.97;5054248;28;20052;-61
2022/08/17 03:18:14;;;;;;;23.70;21.02;;;;;;;22.60;100.00;100871.69;5060125;28;20091;-61
2022/08/17 03:20:57;;;;;;;22.48;20.20;;;;;;;22.62;100.00;100877.63;5046839;28;20051;-61
2022/08/17 03:23:25;;;;;;;23.70;21.08;;;;;;;22.56;100.00;100875.03;5052979;28;20048;-62
2022/08/17 03:25:53;;;;;;;21.55;19.00;;;;;;;22.55;100.00;100876.88;5044826;28;20048;-61
2022/08/17 03:28:20;;;;;;;26.25;20.08;;;;;;;22.55;100.00;100878.75;5064321;28;20056;-61
2022/08/17 03:30:48;;;;;;;23.60;21.08;;;;;;;22.49;100.00;100875.94;5049669;28;20844;-61
2022/08/17 03:33:15;;;;;;;21.05;18.90;;;;;;;22.46;100.00;100876.38;5057950;28;20052;-61
2022/08/17 03:35:42;;;;;;;23.10;20.73;;;;;;;22.48;100.00;100879.66;5052662;28;20053;-61
2022/08/17 03:38:10;;;;;;;22.40;19.63;;;;;;;22.48;100.00;100876.13;5055388;28;20798;-61
2022/08/17 03:40:38;;;;;;;21.25;19.00;;;;;;;22.47;100.00;100875.34;5051356;28;20045;-61
2022/08/17 03:43:27;;;;;;;23.98;20.00;;;;;;;22.48;100.00;100885.00;5051132;28;20056;-61
2022/08/17 03:57:15;;;;;;;23.42;20.27;;;;;;;22.50;100.00;100877.56;5059035;28;20562;-61
2022/08/17 03:59:41;;;;;;;24.20;20.38;;;;;;;22.52;100.00;100871.97;5062318;28;20552;-61
2022/08/17 04:02:15;;;;;;;21.73;18.15;;;;;;;22.59;100.00;100872.72;5068775;28;20744;-61
2022/08/17 04:04:41;;;;;;;21.55;19.27;;;;;;;22.58;100.00;100873.78;5069854;28;20536;-61
2022/08/17 04:07:08;;;;;;;25.42;21.05;;;;;;;22.61;100.00;100872.50;5061078;28;20052;-59
2022/08/17 04:09:35;;;;;;;31.02;19.08;;;;;;;22.61;100.00;100869.84;5055913;28;20053;-61
2022/08/17 04:12:02;;;;;;;22.63;19.60;;;;;;;22.61;100.00;100876.00;5021272;28;20053;-61
2022/08/17 04:14:35;;;;;;;21.05;17.40;;;;;;;22.63;100.00;100867.75;5056888;28;20049;-60
2022/08/17 04:17:20;;;;;;;23.88;19.40;;;;;;;22.62;100.00;100868.78;5052219;28;20040;-61
2022/08/17 04:19:46;;;;;;;20.48;18.27;;;;;;;22.64;100.00;100872.88;5063529;28;20397;-61
2022/08/17 04:22:13;;;;;;;23.77;19.67;;;;;;;22.64;100.00;100866.69;5055620;28;20402;-61
2022/08/17 04:25:06;;;;;;;21.77;19.48;;;;;;;22.71;100.00;100864.75;5058890;28;20128;-61
2022/08/17 04:27:33;;;;;;;23.15;20.48;;;;;;;22.66;100.00;100868.13;5062524;28;20409;-61
2022/08/17 04:30:00;;;;;;;21.95;19.63;;;;;;;22.68;100.00;100865.22;5050218;28;20133;-61
2022/08/17 04:32:27;;;;;;;20.73;18.52;;;;;;;22.68;100.00;100873.25;5048415;28;20056;-61
2022/08/17 04:35:17;;;;;;;16.58;14.52;;;;;;;22.79;100.00;100879.66;5060865;28;20060;-61
2022/08/17 04:37:44;;;;;;;24.80;18.67;;;;;;;22.70;100.00;100879.19;5067951;28;20044;-61
2022/08/17 04:43:08;;;;;;;20.88;17.40;;;;;;;22.73;100.00;100883.25;5062628;28;20052;-61
2022/08/17 04:45:43;;;;;;;20.63;16.00;;;;;;;22.73;100.00;100881.38;5053692;28;20059;-61
2022/08/17 04:48:22;;;;;;;21.95;16.88;;;;;;;22.69;100.00;100877.53;5066757;28;20053;-61
2022/08/17 04:51:02;;;;;;;18.00;16.15;;;;;;;22.75;100.00;100881.16;5050067;28;20048;-61
2022/08/17 04:53:28;;;;;;;22.05;15.70;;;;;;;22.73;100.00;100880.59;5063809;28;20045;-61
2022/08/17 04:55:57;;;;;;;22.25;16.13;;;;;;;22.73;100.00;100886.75;5047381;28;20049;-61
2022/08/17 04:58:23;;;;;;;18.98;14.73;;;;;;;22.73;100.00;100880.59;5059855;28;20052;-61
2022/08/17 05:00:49;;;;;;;19.67;16.95;;;;;;;22.71;100.00;100884.28;5060206;28;20048;-61
2022/08/17 05:03:16;;;;;;;20.40;16.50;;;;;;;22.71;100.00;100883.47;5061724;28;20044;-61
2022/08/17 05:05:48;;;;;;;24.55;18.02;;;;;;;22.71;100.00;100886.94;5058914;28;20045;-61
2022/08/17 05:08:17;;;;;;;19.92;16.90;;;;;;;22.79;100.00;100887.69;5046916;28;20057;-61
2022/08/17 05:10:44;;;;;;;20.70;16.95;;;;;;;22.75;100.00;100889.19;5054890;28;20049;-61
2022/08/17 05:13:23;;;;;;;18.45;16.50;;;;;;;22.80;100.00;100890.16;5044960;28;20497;-61
2022/08/17 05:15:56;;;;;;;18.30;15.95;;;;;;;22.82;100.00;100889.94;5050598;28;20045;-61
2022/08/17 05:18:22;;;;;;;22.55;17.63;;;;;;;22.78;100.00;100896.78;5024869;28;20052;-61
2022/08/17 05:20:50;;;;;;;21.88;17.60;;;;;;;22.76;100.00;100905.00;5059338;28;20092;-61
2022/08/17 05:23:20;;;;;;;19.45;16.75;;;;;;;22.81;100.00;100910.47;5048641;28;20057;-61
2022/08/17 05:25:49;;;;;;;22.30;17.10;;;;;;;22.83;100.00;100910.28;5041452;28;20056;-62
2022/08/17 05:28:18;;;;;;;18.52;15.38;;;;;;;22.82;100.00;100922.03;5049127;28;20045;-61
2022/08/17 05:30:49;;;;;;;26.45;17.20;;;;;;;22.80;100.00;100916.09;5056236;28;20062;-60
2022/08/17 05:33:28;;;;;;;19.05;16.15;;;;;;;22.88;100.00;100911.22;5065477;28;20059;-61
2022/08/17 05:35:57;;;;;;;18.17;15.93;;;;;;;22.92;100.00;100903.56;5057313;28;20078;-60
2022/08/17 05:38:26;;;;;;;20.77;16.05;;;;;;;22.92;100.00;100903.56;5066999;28;20052;-61
2022/08/17 05:40:53;;;;;;;19.27;15.48;;;;;;;22.95;100.00;100911.13;5060021;28;20052;-61
2022/08/17 05:43:27;;;;;;;17.05;15.25;;;;;;;23.00;100.00;100908.59;5055359;28;20053;-61
2022/08/17 05:46:22;;;;;;;18.52;15.13;;;;;;;23.06;100.00;100910.41;5061047;28;20053;-60
2022/08/17 05:48:51;;;;;;;16.40;14.70;;;;;;;23.01;100.00;100915.59;5059529;28;20052;-60
2022/08/17 05:51:51;;;;;;;18.63;14.30;;;;;;;23.03;100.00;100929.59;5053537;28;20054;-61
2022/08/17 05:54:38;;;;;;;17.15;13.63;;;;;;;23.02;100.00;100927.09;5057667;28;20639;-61
2022/08/17 05:57:22;;;;;;;22.13;15.05;;;;;;;22.96;100.00;100933.38;5060696;28;20055;-61
2022/08/17 06:00:16;;;;;;;19.88;15.40;;;;;;;22.91;100.00;100960.75;5048788;28;20048;-61
2022/08/17 06:03:03;;;;;;;20.55;14.80;;;;;;;22.90;100.00;100951.13;5052928;28;20056;-61
2022/08/17 06:06:04;;;;;;;16.40;13.30;;;;;;;23.05;100.00;100940.03;5049631;28;20045;-60
2022/08/17 06:08:38;;;;;;;17.63;13.73;;;;;;;23.10;100.00;100937.50;5061424;28;20045;-60
2022/08/17 06:11:20;;;;;;;18.50;13.23;;;;;;;23.14;100.00;100940.56;5031483;28;20055;-61
2022/08/17 06:14:16;;;;;;;15.85;14.23;;;;;;;23.17;100.00;100938.25;5054212;28;20064;-61
2022/08/17 06:16:48;;;;;;;15.90;14.10;;;;;;;23.18;100.00;100920.34;5048336;28;20049;-60
2022/08/17 06:19:22;;;;;;;21.50;14.75;;;;;;;23.19;100.00;100938.84;5059073;28;20041;-59
2022/08/17 06:21:53;;;;;;;18.15;15.18;;;;;;;23.19;100.00;100927.28;5047908;28;20052;-59
2022/08/17 06:24:26;;;;;;;18.15;16.27;;;;;;;23.21;100.00;100930.59;5066733;28;20392;-60
2022/08/17 06:26:58;;;;;;;18.30;16.40;;;;;;;23.19;100.00;100933.47;5057291;28;20055;-60
2022/08/17 06:29:51;;;;;;;19.25;17.13;;;;;;;23.20;100.00;100931.63;5057982;28;20106;-60
2022/08/17 06:32:18;;;;;;;18.73;16.73;;;;;;;23.10;100.00;100934.84;5053994;28;20044;-59
2022/08/17 06:34:45;;;;;;;23.48;17.42;;;;;;;23.13;100.00;100933.56;5062606;28;20055;-60
2022/08/17 06:37:32;;;;;;;22.50;17.80;;;;;;;23.17;100.00;100937.41;5067717;28;20753;-60
2022/08/17 06:40:18;;;;;;;19.80;17.52;;;;;;;23.18;100.00;100937.19;5050643;28;20052;-60
2022/08/17 06:42:47;;;;;;;20.20;17.90;;;;;;;23.20;100.00;100939.66;5056086;28;20048;-60
2022/08/17 06:45:57;;;;;;;21.27;18.05;;;;;;;23.24;100.00;100932.78;5048676;28;20463;-60
2022/08/17 06:48:29;;;;;;;21.67;18.65;;;;;;;23.21;100.00;100943.97;5051293;28;20044;-59
2022/08/17 06:51:25;;;;;;;22.77;19.50;;;;;;;23.25;100.00;100953.97;5052518;28;20048;-60
2022/08/17 06:54:04;;;;;;;22.77;19.13;;;;;;;23.24;100.00;100933.59;5052725;28;20067;-60
2022/08/17 06:57:09;;;;;;;26.77;20.60;;;;;;;23.22;100.00;100949.06;5043488;28;20083;-60
2022/08/17 06:59:48;;;;;;;24.70;21.63;;;;;;;23.18;100.00;100952.44;5061013;28;20044;-58
2022/08/17 07:02:59;;;;;;;26.17;21.40;;;;;;;23.18;100.00;100952.44;5051347;28;20512;-60
2022/08/17 07:05:35;;;;;;;24.77;21.95;;;;;;;23.19;100.00;100949.53;5056419;28;20049;-60
2022/08/17 07:08:21;;;;;;;26.45;22.23;;;;;;;23.10;100.00;100953.56;5062227;28;20051;-59
2022/08/17 07:10:59;;;;;;;28.20;22.95;;;;;;;23.07;100.00;100943.31;5056532;28;20470;-60
2022/08/17 07:13:44;;;;;;;28.92;23.70;;;;;;;23.05;100.00;100948.91;5059901;28;20045;-60
2022/08/17 07:16:20;;;;;;;29.70;23.88;;;;;;;23.02;100.00;100940.47;5049063;28;20053;-60
2022/08/17 07:18:50;;;;;;;28.38;25.30;;;;;;;22.92;100.00;100943.69;5044449;28;20076;-58
2022/08/17 07:21:37;;;;;;;26.67;23.70;;;;;;;22.94;100.00;100951.50;5057674;28;20053;-60
2022/08/17 07:24:36;;;;;;;31.15;25.10;;;;;;;22.91;100.00;100947.41;5048406;28;20127;-60
2022/08/17 07:27:11;;;;;;;25.20;22.58;;;;;;;22.92;100.00;100949.03;5059647;28;20049;-60
2022/08/17 07:29:45;;;;;;;28.65;25.67;;;;;;;22.95;100.00;100956.59;5026824;28;20057;-60
2022/08/17 07:32:17;;;;;;;33.45;25.98;;;;;;;22.99;100.00;100975.69;5048293;28;20057;-60
2022/08/17 07:35:09;;;;;;;29.17;25.83;;;;;;;23.03;100.00;100972.41;5060471;28;20469;-58
2022/08/17 07:37:38;;;;;;;32.10;25.98;;;;;;;23.10;100.00;100972.28;5055842;28;20052;-60
2022/08/17 07:40:18;;;;;;;30.58;27.23;;;;;;;23.17;100.00;100965.00;5048360;28;20059;-61
2022/08/17 07:43:15;;;;;;;29.27;26.30;;;;;;;23.25;100.00;100967.34;5052820;28;20058;-60
2022/08/17 07:48:42;;;;;;;29.83;26.70;;;;;;;23.33;100.00;100973.44;5046336;28;20049;-60
2022/08/17 07:51:19;;;;;;;27.45;24.52;;;;;;;23.37;100.00;100969.28;5051571;28;20477;-60
2022/08/17 07:53:48;;;;;;;30.88;27.45;;;;;;;23.31;100.00;100976.34;5044658;28;20044;-60
2022/08/17 07:56:44;;;;;;;33.28;26.38;;;;;;;23.41;100.00;100971.25;5058589;28;20052;-60
2022/08/17 07:59:23;;;;;;;30.35;25.88;;;;;;;23.42;100.00;100975.56;5051412;28;20052;-60
2022/08/17 08:01:55;;;;;;;27.42;24.52;;;;;;;23.40;100.00;100988.34;5049034;28;20055;-60
2022/08/17 08:04:36;;;;;;;32.15;26.80;;;;;;;23.42;100.00;100986.28;5057882;28;20085;-60
2022/08/17 08:07:25;;;;;;;29.02;25.85;;;;;;;23.41;100.00;100981.16;5071805;28;20098;-60
2022/08/17 08:09:57;;;;;;;31.27;26.80;;;;;;;23.40;100.00;100977.63;5062469;28;20053;-60
2022/08/17 08:12:42;;;;;;;31.98;27.48;;;;;;;23.38;100.00;100976.25;5055061;28;20045;-60
2022/08/17 08:15:19;;;;;;;31.67;25.67;;;;;;;23.43;100.00;100987.09;5056056;28;20044;-63
2022/08/17 08:17:57;;;;;;;30.40;26.92;;;;;;;23.45;100.00;100988.50;5051372;28;20045;-60
2022/08/17 08:20:48;;;;;;;30.73;26.80;;;;;;;23.51;100.00;100976.06;5059074;28;20048;-61
2022/08/17 08:23:24;;;;;;;26.33;23.55;;;;;;;23.56;100.00;100981.56;5049167;28;20049;-60
2022/08/17 08:26:12;;;;;;;29.73;25.52;;;;;;;23.78;100.00;100979.19;5063399;28;20048;-60
2022/08/17 08:29:18;;;;;;;28.58;25.77;;;;;;;23.96;100.00;100978.25;5049992;28;20627;-67
2022/08/17 08:32:15;;;;;;;32.30;27.25;;;;;;;24.14;100.00;100985.38;5051371;28;20409;-61
2022/08/17 08:35:08;;;;;;;28.10;24.27;;;;;;;24.33;100.00;100982.59;5052993;28;20040;-61
2022/08/17 08:37:46;;;;;;;31.13;25.25;;;;;;;24.47;100.00;100987.47;5054378;28;20049;-61
2022/08/17 08:40:41;;;;;;;27.27;24.35;;;;;;;24.65;100.00;100986.53;5042827;28;20044;-60
2022/08/17 08:43:28;;;;;;;27.17;24.10;;;;;;;24.77;100.00;100994.56;5055788;28;20408;-61
2022/08/17 08:46:14;;;;;;;28.15;23.10;;;;;;;24.83;100.00;101004.34;5050268;28;20052;-59
2022/08/17 08:49:04;;;;;;;26.08;23.17;;;;;;;24.82;100.00;101009.97;5057737;28;20041;-61
2022/08/17 08:51:51;;;;;;;30.25;25.58;;;;;;;24.79;100.00;101023.81;5047007;28;20056;-60
2022/08/17 08:54:46;;;;;;;34.42;26.10;;;;;;;24.83;100.00;101046.44;5057988;28;20303;-61
2022/08/17 08:57:20;;;;;;;28.40;25.33;;;;;;;24.80;100.00;101050.44;5046411;28;20440;-61
2022/08/17 09:00:11;;;;;;;29.08;25.85;;;;;;;24.75;100.00;101044.13;5049445;28;20137;-61
2022/08/17 09:03:07;;;;;;;27.13;24.33;;;;;;;24.78;100.00;101031.06;5047230;28;21246;-60
2022/08/17 09:06:21;;;;;;;27.83;24.60;;;;;;;24.83;100.00;101017.75;5056785;28;20041;-61
2022/08/17 09:09:23;;;;;;;29.88;26.50;;;;;;;24.80;100.00;101020.09;5049195;28;20054;-60
2022/08/17 09:12:03;;;;;;;28.27;24.98;;;;;;;24.76;100.00;101018.94;5058585;28;20056;-60
2022/08/17 09:14:39;;;;;;;28.35;25.25;;;;;;;24.77;100.00;101005.28;5044813;28;20056;-60
2022/08/17 09:17:18;;;;;;;26.85;23.70;;;;;;;24.73;100.00;101000.63;5049900;28;20053;-61
2022/08/17 09:19:52;;;;;;;31.25;26.88;;;;;;;24.83;100.00;101000.84;5045726;28;20440;-60
2022/08/17 09:22:31;;;;;;;29.42;26.20;;;;;;;24.82;100.00;100993.88;5056643;28;20059;-60
2022/08/17 09:25:07;;;;;;;28.65;25.52;;;;;;;24.91;100.00;100986.25;5053109;28;20053;-60
2022/08/17 09:28:06;;;;;;;28.08;24.42;;;;;;;25.03;100.00;100982.47;5051676;28;20041;-60
2022/08/17 09:30:50;;;;;;;28.38;25.33;;;;;;;25.20;100.00;100969.09;5041132;28;20056;-60
2022/08/17 09:33:24;;;;;;;26.27;23.60;;;;;;;25.45;100.00;100966.09;5057593;28;20045;-60
2022/08/17 09:36:03;;;;;;;23.40;21.00;;;;;;;25.61;100.00;100966.34;5049949;28;20083;-61
2022/08/17 09:38:49;;;;;;;20.02;17.63;;;;;;;25.70;100.00;100966.75;5058127;28;20132;-61
2022/08/17 09:41:36;;;;;;;25.15;22.52;;;;;;;25.82;100.00;100962.13;5049227;28;20492;-60
2022/08/17 09:44:05;;;;;;;;;;;;;;;25.92;100.00;100975.75;5054542;28;20053;-60
2022/08/17 09:47:02;;;;;;;23.52;21.23;;;;;;;25.95;100.00;100972.59;5045614;28;19929;-61
2022/08/17 09:49:39;;;;;;;26.45;21.40;;;;;;;26.01;100.00;100970.78;5051946;28;20044;-60
2022/08/17 09:52:13;;;;;;;21.60;18.40;;;;;;;26.11;100.00;100962.03;5061317;28;20054;-61
2022/08/17 09:54:44;;;;;;;27.00;19.55;;;;;;;26.14;100.00;100972.31;5053769;28;20127;-59
2022/08/17 09:57:38;;;;;;;22.67;19.73;;;;;;;26.15;100.00;100971.25;5063053;28;20056;-60
2022/08/17 10:00:25;;;;;;;20.67;18.13;;;;;;;26.13;100.00;100970.66;5058295;28;20056;-61
2022/08/17 10:03:21;;;;;;;20.38;18.35;;;;;;;26.30;100.00;100970.66;5052812;28;20515;-61
2022/08/17 10:05:59;;;;;;;17.85;16.05;;;;;;;26.36;100.00;100975.84;5052159;28;20052;-61
2022/08/17 10:08:43;;;;;;;19.40;17.60;;;;;;;26.45;100.00;100978.94;5060398;28;20052;-61
2022/08/17 10:12:14;;;;;;;17.92;15.93;;;;;;;26.57;100.00;100987.69;5052800;28;20576;-61
2022/08/17 10:14:31;;;;;;;22.40;18.92;;;;;;;26.59;100.00;100993.66;5063671;28;20398;-61
2022/08/17 10:17:37;;;;;;;22.17;19.65;;;;;;;26.63;99.54;100989.41;5052228;28;20056;-61
2022/08/17 10:20:18;;;;;;;18.30;16.40;;;;;;;26.73;100.00;100991.41;5053011;28;20041;-61
2022/08/17 10:28:39;;;;;;;22.10;19.80;;;;;;;26.53;98.64;101004.59;5052894;28;20048;-62
2022/08/17 10:31:08;;;;;;;21.98;19.50;;;;;;;26.59;100.00;101000.94;5050674;28;20060;-61
2022/08/17 10:34:48;;;;;;;21.63;19.35;;;;;;;26.63;97.79;101002.06;5052084;28;20070;-61
2022/08/17 10:37:23;;;;;;;22.98;19.60;;;;;;;26.54;98.01;101006.19;5053806;28;20049;-61
2022/08/17 10:40:31;;;;;;;22.13;19.95;;;;;;;26.59;98.13;101015.19;5056740;28;20412;-61
2022/08/17 10:43:09;;;;;;;21.42;19.20;;;;;;;26.55;99.26;101029.38;5060863;28;20329;-61
2022/08/17 10:45:44;;;;;;;22.15;19.85;;;;;;;26.47;98.47;101040.56;5068008;28;20052;-61
2022/08/17 10:48:12;;;;;;;23.15;20.83;;;;;;;26.29;93.87;101050.50;5049240;28;20064;-61
2022/08/17 10:50:54;;;;;;;21.90;19.47;;;;;;;26.22;94.80;101050.66;5045047;28;20092;-61
2022/08/17 10:53:37;;;;;;;21.10;19.00;;;;;;;26.19;99.21;101051.16;5067426;28;20052;-61
2022/08/17 10:56:11;;;;;;;21.58;18.38;;;;;;;26.16;98.86;101061.59;5043177;28;20351;-60
2022/08/17 10:58:54;;;;;;;22.88;20.20;;;;;;;26.03;100.00;101060.88;5060170;28;20041;-61
2022/08/17 11:01:37;;;;;;;21.15;18.92;;;;;;;25.77;100.00;101058.75;5052685;28;20051;-61
2022/08/17 11:04:33;;;;;;;22.38;20.13;;;;;;;25.67;100.00;101061.28;5050097;28;20521;-62
2022/08/17 11:07:22;;;;;;;24.55;21.20;;;;;;;25.37;100.00;101059.66;5064314;28;20053;-60
2022/08/17 11:10:32;;;;;;;22.05;19.90;;;;;;;25.20;100.00;101055.00;5051605;28;20060;-61
2022/08/17 11:13:22;;;;;;;24.45;21.83;;;;;;;25.04;100.00;101061.91;5051954;28;20052;-61
2022/08/17 11:16:13;;;;;;;24.80;22.30;;;;;;;24.88;100.00;101067.22;5034392;28;20422;-61
2022/08/17 11:19:21;;;;;;;24.13;21.75;;;;;;;24.60;100.00;101077.63;5046943;28;20131;-60
2022/08/17 11:21:57;;;;;;;27.17;24.27;;;;;;;24.50;100.00;101066.59;5051389;28;20547;-62
2022/08/17 11:24:46;;;;;;;24.23;21.77;;;;;;;24.23;100.00;101072.44;5061845;28;20055;-62
2022/08/17 11:27:31;;;;;;;27.83;25.02;;;;;;;24.10;100.00;101078.00;5064364;28;20060;-62
2022/08/17 11:30:05;;;;;;;34.03;30.38;;;;;;;24.10;100.00;101080.69;5053026;28;20058;-64
2022/08/17 11:32:32;;;;;;;30.10;25.98;;;;;;;24.06;100.00;101069.59;5057660;28;20048;-64
2022/08/17 11:35:20;;;;;;;28.55;25.38;;;;;;;24.02;100.00;101081.00;5051570;28;20056;-63
2022/08/17 11:38:13;;;;;;;30.05;27.08;;;;;;;24.02;100.00;101084.50;5053758;28;20471;-65
2022/08/17 11:41:26;;;;;;;33.92;28.13;;;;;;;23.98;100.00;101072.63;5059458;28;20110;-62
2022/08/17 11:43:52;;;;;;;32.50;28.98;;;;;;;24.02;100.00;101070.31;5047807;28;20051;-64
2022/08/17 11:52:45;;;;;;;31.25;27.95;;;;;;;23.88;100.00;101081.22;5055931;28;20436;-63
2022/08/17 11:55:27;;;;;;;29.77;26.42;;;;;;;23.86;100.00;101088.66;5046088;28;20590;-64
2022/08/17 11:58:36;;;;;;;33.42;30.00;;;;;;;23.88;100.00;101080.41;5049238;28;20056;-64
2022/08/17 12:01:31;;;;;;;61.50;31.02;;;;;;;23.92;100.00;101086.94;5034282;28;20059;-64
2022/08/17 12:04:23;;;;;;;35.88;29.40;;;;;;;23.88;100.00;101088.44;5071951;28;20129;-64
2022/08/17 12:06:56;;;;;;;35.22;30.58;;;;;;;23.74;100.00;101084.25;5056880;28;20127;-64
2022/08/17 12:09:28;;;;;;;32.88;29.42;;;;;;;23.79;100.00;101076.41;5053716;28;20064;-63
2022/08/17 12:11:57;;;;;;;32.08;28.83;;;;;;;23.79;100.00;101063.81;5047200;28;20049;-63
2022/08/17 12:14:45;;;;;;;35.33;30.45;;;;;;;23.82;100.00;101067.94;5055035;28;20144;-62
2022/08/17 12:17:34;;;;;;;36.33;30.48;;;;;;;23.79;100.00;101079.88;5044181;28;20048;-62
2022/08/17 12:20:22;;;;;;;32.20;28.90;;;;;;;23.74;100.00;101079.75;5048825;28;20049;-62